createdAt,value
2018-07-17T00:00:37.986Z,12.40
2018-07-17T00:03:06.494Z,12.40
2018-07-17T00:05:34.974Z,12.40
2018-07-17T00:08:03.418Z,12.40
2018-07-17T00:10:31.834Z,12.40
2018-07-17T00:13:00.254Z,12.30
2018-07-17T00:15:28.669Z,12.30
2018-07-17T00:20:25.245Z,12.20
2018-07-17T00:22:53.706Z,12.20
2018-07-17T00:25:22.143Z,12.10
2018-07-17T00:27:50.574Z,12.10
2018-07-17T00:30:19.015Z,12.10
2018-07-17T00:32:47.446Z,12.10
2018-07-17T00:35:15.855Z,12.10
2018-07-17T00:37:44.309Z,12.00
2018-07-17T00:40:12.750Z,12.00
2018-07-17T00:42:41.180Z,11.90
2018-07-17T00:45:09.600Z,11.90
2018-07-17T00:47:38.046Z,11.80
2018-07-17T00:50:06.478Z,11.80
2018-07-17T00:52:34.910Z,11.80
2018-07-17T00:55:03.323Z,11.80
2018-07-17T00:57:31.763Z,11.80
2018-07-17T01:00:00.188Z,11.80
2018-07-17T01:02:34.067Z,11.80
2018-07-17T01:05:07.856Z,11.80
2018-07-17T01:07:41.649Z,11.70
2018-07-17T01:10:15.266Z,11.70
2018-07-17T01:12:42.902Z,11.70
2018-07-17T01:15:17.483Z,11.70
2018-07-17T01:20:14.087Z,11.70
2018-07-17T01:22:42.530Z,11.70
2018-07-17T01:25:11.032Z,11.70
2018-07-17T01:27:39.458Z,11.70
2018-07-17T01:30:07.879Z,11.70
2018-07-17T01:32:36.327Z,11.70
2018-07-17T01:35:04.741Z,11.70
2018-07-17T01:37:33.210Z,11.70
2018-07-17T01:40:01.630Z,11.70
2018-07-17T01:42:30.067Z,11.70
2018-07-17T01:44:58.475Z,11.70
2018-07-17T01:47:26.919Z,11.70
2018-07-17T01:49:55.326Z,11.70
2018-07-17T01:52:23.763Z,11.60
2018-07-17T01:57:20.315Z,11.60
2018-07-17T01:59:48.727Z,11.60
2018-07-17T02:02:17.169Z,11.50
2018-07-17T02:04:45.599Z,11.50
2018-07-17T02:07:14.046Z,11.50
2018-07-17T02:09:42.498Z,11.50
2018-07-17T02:12:10.963Z,11.40
2018-07-17T02:14:39.394Z,11.40
2018-07-17T02:17:07.931Z,11.40
2018-07-17T02:19:36.397Z,11.40
2018-07-17T02:22:04.856Z,11.40
2018-07-17T02:24:33.328Z,11.30
2018-07-17T02:27:01.756Z,11.30
2018-07-17T02:29:30.202Z,11.20
2018-07-17T02:31:58.630Z,11.20
2018-07-17T02:34:27.087Z,11.20
2018-07-17T02:36:55.526Z,11.20
2018-07-17T02:39:24.021Z,11.20
2018-07-17T02:41:52.474Z,11.20
2018-07-17T02:44:20.934Z,11.20
2018-07-17T02:46:49.375Z,11.20
2018-07-17T02:49:17.827Z,11.20
2018-07-17T02:51:46.282Z,11.20
2018-07-17T02:54:14.742Z,11.20
2018-07-17T02:56:43.179Z,11.10
2018-07-17T02:59:11.631Z,11.10
2018-07-17T03:01:40.081Z,11.10
2018-07-17T03:04:08.530Z,11.10
2018-07-17T03:06:36.958Z,11.00
2018-07-17T03:11:34.219Z,10.90
2018-07-17T03:14:02.696Z,10.90
2018-07-17T03:16:31.159Z,10.80
2018-07-17T03:18:59.612Z,10.80
2018-07-17T03:21:28.058Z,10.80
2018-07-17T03:23:56.526Z,10.80
2018-07-17T03:26:24.972Z,10.80
2018-07-17T03:28:53.434Z,10.80
2018-07-17T03:31:21.876Z,10.80
2018-07-17T03:33:50.349Z,10.80
2018-07-17T03:36:18.877Z,10.80
2018-07-17T03:38:47.291Z,10.80
2018-07-17T03:41:15.762Z,10.80
2018-07-17T03:43:44.222Z,10.80
2018-07-17T03:46:12.719Z,10.80
2018-07-17T03:48:41.170Z,10.80
2018-07-17T03:51:09.628Z,10.80
2018-07-17T03:53:38.087Z,10.80
2018-07-17T03:56:06.858Z,10.80
2018-07-17T03:58:35.314Z,10.80
2018-07-17T04:01:03.806Z,10.80
2018-07-17T04:03:32.336Z,10.80
2018-07-17T04:06:00.777Z,10.90
2018-07-17T04:08:29.265Z,10.90
2018-07-17T04:10:57.732Z,11.00
2018-07-17T04:13:26.240Z,11.00
2018-07-17T04:15:54.666Z,11.10
2018-07-17T04:18:23.099Z,11.20
2018-07-17T04:20:51.565Z,11.20
2018-07-17T04:23:20.011Z,11.20
2018-07-17T04:25:48.547Z,11.30
2018-07-17T04:28:16.991Z,11.40
2018-07-17T04:30:45.506Z,11.50
2018-07-17T04:33:13.959Z,11.50
2018-07-17T04:35:42.451Z,11.60
2018-07-17T04:38:10.899Z,11.70
2018-07-17T04:40:39.353Z,11.80
2018-07-17T04:43:07.794Z,11.90
2018-07-17T04:45:36.353Z,12.00
2018-07-17T04:48:04.806Z,12.20
2018-07-17T04:50:33.343Z,12.30
2018-07-17T04:53:01.762Z,12.50
2018-07-17T04:55:30.270Z,12.70
2018-07-17T04:57:58.742Z,13.10
2018-07-17T05:00:27.266Z,13.30
2018-07-17T05:02:55.722Z,13.50
2018-07-17T05:05:24.192Z,13.70
2018-07-17T05:10:20.897Z,14.30
2018-07-17T05:12:49.303Z,14.50
2018-07-17T05:15:17.753Z,14.70
2018-07-17T05:17:46.248Z,14.90
2018-07-17T05:20:14.726Z,15.00
2018-07-17T05:22:43.194Z,15.10
2018-07-17T05:25:11.633Z,15.20
2018-07-17T05:27:40.082Z,15.40
2018-07-17T05:30:08.544Z,15.50
2018-07-17T05:32:36.990Z,15.60
2018-07-17T05:35:05.567Z,15.70
2018-07-17T05:37:34.003Z,15.70
2018-07-17T05:40:02.514Z,15.70
2018-07-17T05:42:30.958Z,15.80
2018-07-17T05:45:00.011Z,15.80
2018-07-17T05:47:28.450Z,15.90
2018-07-17T05:49:56.899Z,16.00
2018-07-17T05:52:25.345Z,16.20
2018-07-17T05:54:53.791Z,16.30
2018-07-17T05:57:22.218Z,16.50
2018-07-17T05:59:50.663Z,16.70
2018-07-17T06:02:19.090Z,16.90
2018-07-17T06:04:47.546Z,17.10
2018-07-17T06:07:15.988Z,17.40
2018-07-17T06:09:44.544Z,17.70
2018-07-17T06:12:12.982Z,18.10
2018-07-17T06:14:41.417Z,18.40
2018-07-17T06:17:09.934Z,18.90
2018-07-17T06:19:38.354Z,19.40
2018-07-17T06:22:07.028Z,19.80
2018-07-17T06:24:35.450Z,20.20
2018-07-17T06:27:04.475Z,20.40
2018-07-17T06:29:32.874Z,20.80
2018-07-17T06:32:01.307Z,20.70
2018-07-17T06:34:29.743Z,20.80
2018-07-17T06:36:58.182Z,21.00
2018-07-17T06:39:26.598Z,21.40
2018-07-17T06:41:55.033Z,21.70
2018-07-17T06:44:23.461Z,21.80
2018-07-17T06:46:51.886Z,21.80
2018-07-17T06:49:20.322Z,21.80
2018-07-17T06:51:48.774Z,21.50
2018-07-17T06:54:17.182Z,21.70
2018-07-17T06:56:45.951Z,22.10
2018-07-17T06:59:14.403Z,22.60
2018-07-17T07:01:42.813Z,22.90
2018-07-17T07:04:11.237Z,23.40
2018-07-17T07:06:39.663Z,23.70
2018-07-17T07:09:09.339Z,23.80
2018-07-17T07:11:38.770Z,23.60
2018-07-17T07:14:07.308Z,24.00
2018-07-17T07:16:35.770Z,24.10
2018-07-17T07:19:04.223Z,24.60
2018-07-17T07:21:32.706Z,25.20
2018-07-17T07:24:01.138Z,25.70
2018-07-17T07:26:29.630Z,26.60
2018-07-17T07:28:58.070Z,26.50
2018-07-17T07:31:26.542Z,26.70
2018-07-17T07:33:54.974Z,26.60
2018-07-17T07:36:23.495Z,26.40
2018-07-17T07:38:51.923Z,26.70
2018-07-17T07:41:20.419Z,26.90
2018-07-17T07:43:48.882Z,26.40
2018-07-17T07:46:17.353Z,27.30
2018-07-17T07:48:45.841Z,27.40
2018-07-17T07:53:42.422Z,28.20
2018-07-17T07:56:10.872Z,27.80
2018-07-17T07:58:39.322Z,27.90
2018-07-17T08:01:07.839Z,28.20
2018-07-17T08:03:36.381Z,27.90
2018-07-17T08:06:04.792Z,28.20
2018-07-17T08:08:33.282Z,28.70
2018-07-17T08:11:01.779Z,29.90
2018-07-17T08:13:30.242Z,30.50
2018-07-17T08:15:58.690Z,29.20
2018-07-17T08:18:27.174Z,29.80
2018-07-17T08:20:55.610Z,29.70
2018-07-17T08:23:24.102Z,29.40
2018-07-17T08:25:52.531Z,29.80
2018-07-17T08:28:21.015Z,29.10
2018-07-17T08:33:17.670Z,28.60
2018-07-17T08:35:46.112Z,28.90
2018-07-17T08:38:14.583Z,30.10
2018-07-17T08:40:43.042Z,29.50
2018-07-17T08:43:11.599Z,29.60
2018-07-17T08:45:40.019Z,30.10
2018-07-17T08:48:08.474Z,30.40
2018-07-17T08:50:36.963Z,30.00
2018-07-17T08:53:05.494Z,30.30
2018-07-17T08:55:33.938Z,30.20
2018-07-17T08:58:02.394Z,30.50
2018-07-17T09:00:31.171Z,30.10
2018-07-17T09:02:59.591Z,30.20
2018-07-17T09:05:28.033Z,29.90
2018-07-17T09:07:56.506Z,29.40
2018-07-17T09:10:24.938Z,29.90
2018-07-17T09:12:53.395Z,29.80
2018-07-17T09:15:21.870Z,30.70
2018-07-17T09:17:50.322Z,31.30
2018-07-17T09:20:18.771Z,30.90
2018-07-17T09:22:47.213Z,31.20
2018-07-17T09:25:15.707Z,31.00
2018-07-17T09:27:44.164Z,30.90
2018-07-17T09:30:12.642Z,30.70
2018-07-17T09:32:41.118Z,31.00
2018-07-17T09:35:09.579Z,30.80
2018-07-17T09:37:38.025Z,31.10
2018-07-17T09:40:06.574Z,30.70
2018-07-17T09:42:35.094Z,30.20
2018-07-17T09:45:03.577Z,30.80
2018-07-17T09:47:32.027Z,30.90
2018-07-17T09:50:00.474Z,30.80
2018-07-17T09:52:29.018Z,30.30
2018-07-17T09:54:57.463Z,30.70
2018-07-17T09:57:25.919Z,29.70
2018-07-17T09:59:54.775Z,30.20
2018-07-17T10:02:30.338Z,30.50
2018-07-17T10:04:59.742Z,30.70
2018-07-17T10:07:28.390Z,29.40
2018-07-17T10:09:56.826Z,30.40
2018-07-17T10:12:25.669Z,30.80
2018-07-17T10:14:54.383Z,31.40
2018-07-17T10:17:22.802Z,31.40
2018-07-17T10:19:51.251Z,31.00
2018-07-17T10:22:19.665Z,30.70
2018-07-17T10:24:48.091Z,31.40
2018-07-17T10:27:16.500Z,32.00
2018-07-17T10:29:44.939Z,32.80
2018-07-17T10:34:41.487Z,32.90
2018-07-17T10:37:09.909Z,32.90
2018-07-17T10:39:38.479Z,32.30
2018-07-17T10:42:06.903Z,32.10
2018-07-17T10:44:35.330Z,31.70
2018-07-17T10:47:03.762Z,31.30
2018-07-17T10:49:32.194Z,31.80
2018-07-17T10:52:00.605Z,31.90
2018-07-17T10:54:29.066Z,32.60
2018-07-17T10:56:57.526Z,32.80
2018-07-17T10:59:25.976Z,32.60
2018-07-17T11:01:54.381Z,31.50
2018-07-17T11:04:22.860Z,31.00
2018-07-17T11:06:51.394Z,31.10
2018-07-17T11:09:19.886Z,32.20
2018-07-17T11:11:48.590Z,32.10
2018-07-17T11:14:17.034Z,31.90
2018-07-17T11:16:45.451Z,31.60
2018-07-17T11:19:13.883Z,30.70
2018-07-17T11:21:42.316Z,30.10
2018-07-17T11:24:10.754Z,30.20
2018-07-17T11:26:39.166Z,30.80
2018-07-17T11:29:07.627Z,30.90
2018-07-17T11:31:36.055Z,31.40
2018-07-17T11:34:04.518Z,31.10
2018-07-17T11:36:32.924Z,31.00
2018-07-17T11:39:01.362Z,31.20
2018-07-17T11:41:29.779Z,31.70
2018-07-17T11:43:58.250Z,31.60
2018-07-17T11:46:26.664Z,31.60
2018-07-17T11:48:55.090Z,32.10
2018-07-17T11:51:23.510Z,32.60
2018-07-17T11:53:52.154Z,33.00
2018-07-17T11:56:20.579Z,32.90
2018-07-17T11:58:49.028Z,32.60
2018-07-17T12:01:17.545Z,32.20
2018-07-17T12:03:45.962Z,32.40
2018-07-17T12:06:14.459Z,32.80
2018-07-17T12:08:42.911Z,32.70
2018-07-17T12:11:11.371Z,32.80
2018-07-17T12:13:39.810Z,33.30
2018-07-17T12:16:08.277Z,33.40
2018-07-17T12:18:36.734Z,33.40
2018-07-17T12:21:05.233Z,33.50
2018-07-17T12:23:33.705Z,33.90
2018-07-17T12:26:02.207Z,33.50
2018-07-17T12:28:30.638Z,33.20
2018-07-17T12:33:27.242Z,32.90
2018-07-17T12:35:55.718Z,32.90
2018-07-17T12:38:24.178Z,33.40
2018-07-17T12:40:52.641Z,33.10
2018-07-17T12:43:21.106Z,33.10
2018-07-17T12:45:49.558Z,32.40
2018-07-17T12:48:17.993Z,32.70
2018-07-17T12:50:46.443Z,32.70
2018-07-17T12:53:14.911Z,32.80
2018-07-17T12:55:43.410Z,32.80
2018-07-17T12:58:11.862Z,32.80
2018-07-17T13:00:40.323Z,32.70
2018-07-17T13:03:08.809Z,32.40
2018-07-17T13:05:37.275Z,32.30
2018-07-17T13:08:05.717Z,32.10
2018-07-17T13:10:34.144Z,32.20
2018-07-17T13:13:02.550Z,32.00
2018-07-17T13:15:31.075Z,31.80
2018-07-17T13:17:59.500Z,31.60
2018-07-17T13:20:27.932Z,31.30
2018-07-17T13:22:56.371Z,31.10
2018-07-17T13:25:24.830Z,30.80
2018-07-17T13:27:53.243Z,30.20
2018-07-17T13:30:21.703Z,29.20
2018-07-17T13:32:50.166Z,28.80
2018-07-17T13:35:18.618Z,29.20
2018-07-17T13:37:47.060Z,29.00
2018-07-17T13:40:15.473Z,28.90
2018-07-17T13:42:43.903Z,28.50
2018-07-17T13:45:12.326Z,28.60
2018-07-17T13:47:40.804Z,28.70
2018-07-17T13:50:09.255Z,28.90
2018-07-17T13:52:37.756Z,28.80
2018-07-17T13:55:06.217Z,28.20
2018-07-17T13:57:34.638Z,28.30
2018-07-17T14:00:03.200Z,28.40
2018-07-17T14:02:31.581Z,28.50
2018-07-17T14:05:00.003Z,28.50
2018-07-17T14:07:28.469Z,28.80
2018-07-17T14:09:57.330Z,29.20
2018-07-17T14:12:25.831Z,29.70
2018-07-17T14:14:55.049Z,30.10
2018-07-17T14:17:23.532Z,30.10
2018-07-17T14:19:51.918Z,30.10
2018-07-17T14:22:20.338Z,30.30
2018-07-17T14:24:48.772Z,30.50
2018-07-17T14:27:17.215Z,30.20
2018-07-17T14:29:45.635Z,29.70
2018-07-17T14:32:14.171Z,29.70
2018-07-17T14:34:42.589Z,29.90
2018-07-17T14:37:11.026Z,29.90
2018-07-17T14:39:39.457Z,30.00
2018-07-17T14:42:07.899Z,29.90
2018-07-17T14:44:36.327Z,29.90
2018-07-17T14:47:04.746Z,30.30
2018-07-17T14:49:33.158Z,30.10
2018-07-17T14:52:01.605Z,30.00
2018-07-17T14:54:30.043Z,29.30
2018-07-17T14:56:58.507Z,29.30
2018-07-17T14:59:26.919Z,28.90
2018-07-17T15:01:55.338Z,28.60
2018-07-17T15:04:23.746Z,28.70
2018-07-17T15:06:52.155Z,27.90
2018-07-17T15:09:20.621Z,27.50
2018-07-17T15:11:49.027Z,27.10
2018-07-17T15:14:17.491Z,26.70
2018-07-17T15:16:45.906Z,26.40
2018-07-17T15:19:14.349Z,25.80
2018-07-17T15:21:42.775Z,25.30
2018-07-17T15:24:11.230Z,24.90
2018-07-17T15:26:39.635Z,24.60
2018-07-17T15:29:08.062Z,25.10
2018-07-17T15:31:36.559Z,25.20
2018-07-17T15:34:05.187Z,25.40
2018-07-17T15:36:33.606Z,25.80
2018-07-17T15:39:02.349Z,26.00
2018-07-17T15:41:30.760Z,26.20
2018-07-17T15:43:59.413Z,26.40
2018-07-17T15:46:27.822Z,26.50
2018-07-17T15:48:56.258Z,26.60
2018-07-17T15:51:24.681Z,26.70
2018-07-17T15:53:53.165Z,26.80
2018-07-17T15:56:21.581Z,26.90
2018-07-17T15:58:50.043Z,26.80
2018-07-17T16:01:18.490Z,26.70
2018-07-17T16:03:47.134Z,26.80
2018-07-17T16:06:15.564Z,26.70
2018-07-17T16:08:44.039Z,26.70
2018-07-17T16:11:12.486Z,26.70
2018-07-17T16:13:41.036Z,26.70
2018-07-17T16:16:09.355Z,26.60
2018-07-17T16:18:37.816Z,26.40
2018-07-17T16:21:06.604Z,26.20
2018-07-17T16:23:35.054Z,26.00
2018-07-17T16:26:03.516Z,25.70
2018-07-17T16:28:31.970Z,25.50
2018-07-17T16:31:00.401Z,25.40
2018-07-17T16:33:28.827Z,25.30
2018-07-17T16:35:57.337Z,25.30
2018-07-17T16:38:25.789Z,25.20
2018-07-17T16:40:54.222Z,24.80
2018-07-17T16:43:22.766Z,24.60
2018-07-17T16:45:51.182Z,24.70
2018-07-17T16:48:19.598Z,24.70
2018-07-17T16:50:48.038Z,24.70
2018-07-17T16:53:16.471Z,24.80
2018-07-17T16:55:44.906Z,24.90
2018-07-17T16:58:13.370Z,25.00
2018-07-17T17:00:41.834Z,25.00
2018-07-17T17:03:10.267Z,25.10
2018-07-17T17:05:38.690Z,25.10
2018-07-17T17:08:07.159Z,25.20
2018-07-17T17:10:35.614Z,25.20
2018-07-17T17:13:04.045Z,25.20
2018-07-17T17:15:32.506Z,25.20
2018-07-17T17:18:00.947Z,25.20
2018-07-17T17:20:29.383Z,25.00
2018-07-17T17:22:57.810Z,24.80
2018-07-17T17:25:26.274Z,24.70
2018-07-17T17:27:54.702Z,24.50
2018-07-17T17:30:23.136Z,24.40
2018-07-17T17:32:51.613Z,24.30
2018-07-17T17:35:19.997Z,24.20
2018-07-17T17:37:48.418Z,24.20
2018-07-17T17:40:16.858Z,24.00
2018-07-17T17:42:45.258Z,23.80
2018-07-17T17:45:17.033Z,23.30
2018-07-17T17:47:45.466Z,22.90
2018-07-17T17:50:13.912Z,22.60
2018-07-17T17:52:42.334Z,22.30
2018-07-17T17:55:10.787Z,22.00
2018-07-17T17:57:39.291Z,21.80
2018-07-17T18:00:07.807Z,21.60
2018-07-17T18:02:36.222Z,21.50
2018-07-17T18:05:05.058Z,21.40
2018-07-17T18:07:33.485Z,21.30
2018-07-17T18:10:02.287Z,21.20
2018-07-17T18:12:30.726Z,21.20
2018-07-17T18:14:59.525Z,21.00
2018-07-17T18:17:27.966Z,20.90
2018-07-17T18:19:56.402Z,20.90
2018-07-17T18:22:24.930Z,20.90
2018-07-17T18:24:53.378Z,21.00
2018-07-17T18:27:21.995Z,21.20
2018-07-17T18:29:50.438Z,21.20
2018-07-17T18:32:18.870Z,21.20
2018-07-17T18:34:47.339Z,21.30
2018-07-17T18:37:15.877Z,21.30
2018-07-17T18:39:44.306Z,21.50
2018-07-17T18:42:12.769Z,21.40
2018-07-17T18:44:41.208Z,21.30
2018-07-17T18:47:09.679Z,21.30
2018-07-17T18:49:38.194Z,21.20
2018-07-17T18:52:06.699Z,21.20
2018-07-17T18:54:35.167Z,21.20
2018-07-17T18:57:05.383Z,21.20
2018-07-17T18:59:33.821Z,21.10
2018-07-17T19:02:02.275Z,21.00
2018-07-17T19:04:30.812Z,21.10
2018-07-17T19:06:59.317Z,21.00
2018-07-17T19:09:27.757Z,21.00
2018-07-17T19:11:56.206Z,20.90
2018-07-17T19:14:24.659Z,20.80
2018-07-17T19:16:53.183Z,20.70
2018-07-17T19:19:21.598Z,20.60
2018-07-17T19:21:50.074Z,20.40
2018-07-17T19:24:18.521Z,20.50
2018-07-17T19:26:46.985Z,20.50
2018-07-17T19:29:15.484Z,20.50
2018-07-17T19:31:43.922Z,20.50
2018-07-17T19:34:12.363Z,20.50
2018-07-17T19:36:40.847Z,20.40
2018-07-17T19:39:10.945Z,20.30
2018-07-17T19:41:39.454Z,20.10
2018-07-17T19:44:07.947Z,20.10
2018-07-17T19:46:36.425Z,20.00
2018-07-17T19:49:04.927Z,19.90
2018-07-17T19:51:33.442Z,19.80
2018-07-17T19:54:01.874Z,19.60
2018-07-17T19:56:30.350Z,19.60
2018-07-17T19:58:58.794Z,19.50
2018-07-17T20:01:27.295Z,19.60
2018-07-17T20:03:55.747Z,19.50
2018-07-17T20:06:24.222Z,19.60
2018-07-17T20:11:21.858Z,19.60
2018-07-17T20:13:50.299Z,19.50
2018-07-17T20:16:18.833Z,19.30
2018-07-17T20:18:47.332Z,19.30
2018-07-17T20:21:15.815Z,19.30
2018-07-17T20:23:44.274Z,19.20
2018-07-17T20:26:12.783Z,19.20
2018-07-17T20:28:41.243Z,19.10
2018-07-17T20:31:09.695Z,19.10
2018-07-17T20:33:38.205Z,19.20
2018-07-17T20:36:06.667Z,19.20
2018-07-17T20:38:35.135Z,19.20
2018-07-17T20:41:03.623Z,19.10
2018-07-17T20:43:32.114Z,19.10
2018-07-17T20:46:00.538Z,19.00
2018-07-17T20:48:28.982Z,18.90
2018-07-17T20:50:57.433Z,18.80
2018-07-17T20:53:25.899Z,18.70
2018-07-17T20:55:54.356Z,18.70
2018-07-17T20:58:22.810Z,18.70
2018-07-17T21:03:19.466Z,18.60
2018-07-17T21:05:47.943Z,18.50
2018-07-17T21:08:16.401Z,18.50
2018-07-17T21:10:44.835Z,18.50
2018-07-17T21:13:13.350Z,18.40
2018-07-17T21:15:41.743Z,18.30
2018-07-17T21:18:10.185Z,18.20
2018-07-17T21:20:38.617Z,18.20
2018-07-17T21:23:07.091Z,18.10
2018-07-17T21:25:35.528Z,18.10
2018-07-17T21:28:03.981Z,18.10
2018-07-17T21:30:32.413Z,18.00
2018-07-17T21:33:00.946Z,18.00
2018-07-17T21:35:29.370Z,17.90
2018-07-17T21:37:57.811Z,17.90
2018-07-17T21:40:26.275Z,17.90
2018-07-17T21:42:54.738Z,17.80
2018-07-17T21:45:23.183Z,17.80
2018-07-17T21:47:51.645Z,17.80
2018-07-17T21:50:20.093Z,17.70
2018-07-17T21:52:48.554Z,17.70
2018-07-17T21:55:16.989Z,17.60
2018-07-17T21:57:45.439Z,17.60
2018-07-17T22:00:13.936Z,17.60
2018-07-17T22:02:42.403Z,17.70
2018-07-17T22:05:10.834Z,17.70
2018-07-17T22:07:39.286Z,17.70
2018-07-17T22:10:07.746Z,17.70
2018-07-17T22:12:36.175Z,17.70
2018-07-17T22:15:04.718Z,17.70
2018-07-17T22:17:33.139Z,17.60
2018-07-17T22:20:01.563Z,17.60
2018-07-17T22:22:29.999Z,17.50
2018-07-17T22:24:58.406Z,17.50
2018-07-17T22:27:26.812Z,17.40
2018-07-17T22:29:55.255Z,17.30
2018-07-17T22:32:23.664Z,17.40
2018-07-17T22:34:52.095Z,17.40
2018-07-17T22:37:20.543Z,17.40
2018-07-17T22:39:48.959Z,17.40
2018-07-17T22:42:17.398Z,17.30
2018-07-17T22:44:45.834Z,17.30
2018-07-17T22:47:14.242Z,17.30
2018-07-17T22:49:42.681Z,17.30
2018-07-17T22:52:11.095Z,17.20
2018-07-17T22:54:39.538Z,17.20
2018-07-17T22:57:07.933Z,17.20
2018-07-17T22:59:36.358Z,17.20
2018-07-17T23:02:04.845Z,17.20
2018-07-17T23:04:33.224Z,17.10
2018-07-17T23:07:01.643Z,17.00
2018-07-17T23:09:30.107Z,17.00
2018-07-17T23:11:58.581Z,17.00
2018-07-17T23:14:26.967Z,17.00
2018-07-17T23:16:55.388Z,17.00
2018-07-17T23:19:23.815Z,17.00
2018-07-17T23:21:52.222Z,17.00
2018-07-17T23:24:20.650Z,17.00
2018-07-17T23:26:49.077Z,17.00
2018-07-17T23:29:17.509Z,17.00
2018-07-17T23:31:45.930Z,16.90
2018-07-17T23:34:14.372Z,17.00
2018-07-17T23:36:42.799Z,17.00
2018-07-17T23:39:12.009Z,17.00
2018-07-17T23:41:41.377Z,17.00
2018-07-17T23:44:09.866Z,17.10
2018-07-17T23:46:38.314Z,17.20
2018-07-17T23:49:06.750Z,17.20
2018-07-17T23:51:35.164Z,17.30
2018-07-17T23:54:03.619Z,17.30
2018-07-17T23:56:32.020Z,17.30
2018-07-17T23:59:00.497Z,17.40
